sensor_id;sensor_type;location;lat;lon;timestamp;P1;durP1;ratioP1;P2;durP2;ratioP2
37855;SDS011;23694;43.274;26.924;2022-12-18T00:01:04;5.70;;;3.40;;
37855;SDS011;23694;43.274;26.924;2022-12-18T00:03:33;4.33;;;3.47;;
37855;SDS011;23694;43.274;26.924;2022-12-18T00:05:59;4.50;;;3.57;;
37855;SDS011;23694;43.274;26.924;2022-12-18T00:08:25;4.73;;;3.27;;
37855;SDS011;23694;43.274;26.924;2022-12-18T00:10:51;4.07;;;3.37;;
37855;SDS011;23694;43.274;26.924;2022-12-18T00:13:17;4.30;;;3.40;;
37855;SDS011;23694;43.274;26.924;2022-12-18T00:15:43;5.10;;;3.50;;
37855;SDS011;23694;43.274;26.924;2022-12-18T00:18:09;4.07;;;3.10;;
37855;SDS011;23694;43.274;26.924;2022-12-18T00:20:36;3.97;;;3.33;;
37855;SDS011;23694;43.274;26.924;2022-12-18T00:23:03;5.20;;;3.50;;
37855;SDS011;23694;43.274;26.924;2022-12-18T00:25:31;3.90;;;3.20;;
37855;SDS011;23694;43.274;26.924;2022-12-18T00:27:59;57.27;;;40.87;;
37855;SDS011;23694;43.274;26.924;2022-12-18T00:30:25;6.97;;;5.37;;
37855;SDS011;23694;43.274;26.924;2022-12-18T00:32:51;5.47;;;3.40;;
37855;SDS011;23694;43.274;26.924;2022-12-18T00:35:17;5.03;;;3.37;;
37855;SDS011;23694;43.274;26.924;2022-12-18T00:37:43;4.83;;;3.67;;
37855;SDS011;23694;43.274;26.924;2022-12-18T00:40:09;5.53;;;3.50;;
37855;SDS011;23694;43.274;26.924;2022-12-18T00:42:36;4.70;;;3.50;;
37855;SDS011;23694;43.274;26.924;2022-12-18T00:45:20;4.93;;;3.53;;
37855;SDS011;23694;43.274;26.924;2022-12-18T00:47:48;4.73;;;3.20;;
37855;SDS011;23694;43.274;26.924;2022-12-18T00:50:14;5.47;;;3.30;;
37855;SDS011;23694;43.274;26.924;2022-12-18T00:52:40;4.87;;;3.10;;
37855;SDS011;23694;43.274;26.924;2022-12-18T00:55:06;4.47;;;3.00;;
37855;SDS011;23694;43.274;26.924;2022-12-18T00:57:32;4.03;;;3.30;;
37855;SDS011;23694;43.274;26.924;2022-12-18T00:59:59;5.67;;;3.40;;
37855;SDS011;23694;43.274;26.924;2022-12-18T01:02:25;6.33;;;3.80;;
37855;SDS011;23694;43.274;26.924;2022-12-18T01:04:51;4.33;;;3.07;;
37855;SDS011;23694;43.274;26.924;2022-12-18T01:07:17;5.27;;;3.43;;
37855;SDS011;23694;43.274;26.924;2022-12-18T01:09:43;5.20;;;3.60;;
37855;SDS011;23694;43.274;26.924;2022-12-18T01:12:09;5.03;;;3.50;;
37855;SDS011;23694;43.274;26.924;2022-12-18T01:14:35;5.50;;;3.33;;
37855;SDS011;23694;43.274;26.924;2022-12-18T01:17:03;5.07;;;3.53;;
37855;SDS011;23694;43.274;26.924;2022-12-18T01:19:29;6.37;;;4.17;;
37855;SDS011;23694;43.274;26.924;2022-12-18T01:21:55;4.60;;;3.60;;
37855;SDS011;23694;43.274;26.924;2022-12-18T01:24:22;5.43;;;3.53;;
37855;SDS011;23694;43.274;26.924;2022-12-18T01:26:48;9.47;;;4.17;;
37855;SDS011;23694;43.274;26.924;2022-12-18T01:29:14;5.83;;;3.67;;
37855;SDS011;23694;43.274;26.924;2022-12-18T01:31:40;6.17;;;4.40;;
37855;SDS011;23694;43.274;26.924;2022-12-18T01:34:06;5.20;;;4.00;;
37855;SDS011;23694;43.274;26.924;2022-12-18T01:36:33;6.63;;;4.03;;
37855;SDS011;23694;43.274;26.924;2022-12-18T01:39:02;5.70;;;3.90;;
37855;SDS011;23694;43.274;26.924;2022-12-18T01:41:30;5.53;;;4.33;;
37855;SDS011;23694;43.274;26.924;2022-12-18T01:47:43;7.27;;;4.50;;
37855;SDS011;23694;43.274;26.924;2022-12-18T01:52:54;7.60;;;4.60;;
37855;SDS011;23694;43.274;26.924;2022-12-18T01:55:24;6.40;;;5.07;;
37855;SDS011;23694;43.274;26.924;2022-12-18T01:57:54;8.23;;;5.27;;
37855;SDS011;23694;43.274;26.924;2022-12-18T02:00:22;7.37;;;5.30;;
37855;SDS011;23694;43.274;26.924;2022-12-18T02:02:49;9.80;;;5.90;;
37855;SDS011;23694;43.274;26.924;2022-12-18T02:05:17;7.83;;;5.10;;
37855;SDS011;23694;43.274;26.924;2022-12-18T02:07:58;9.82;;;5.90;;
37855;SDS011;23694;43.274;26.924;2022-12-18T02:13:24;8.50;;;5.95;;
37855;SDS011;23694;43.274;26.924;2022-12-18T02:18:35;8.00;;;5.75;;
37855;SDS011;23694;43.274;26.924;2022-12-18T02:24:12;8.35;;;6.22;;
37855;SDS011;23694;43.274;26.924;2022-12-18T02:26:53;9.03;;;5.90;;
37855;SDS011;23694;43.274;26.924;2022-12-18T02:29:24;9.17;;;6.40;;
37855;SDS011;23694;43.274;26.924;2022-12-18T02:31:58;11.15;;;7.07;;
37855;SDS011;23694;43.274;26.924;2022-12-18T02:34:30;11.10;;;7.03;;
37855;SDS011;23694;43.274;26.924;2022-12-18T02:36:59;13.00;;;7.47;;
37855;SDS011;23694;43.274;26.924;2022-12-18T02:39:29;10.30;;;7.00;;
37855;SDS011;23694;43.274;26.924;2022-12-18T02:41:58;11.43;;;7.43;;
37855;SDS011;23694;43.274;26.924;2022-12-18T02:44:27;11.13;;;7.30;;
37855;SDS011;23694;43.274;26.924;2022-12-18T02:46:54;14.27;;;7.90;;
37855;SDS011;23694;43.274;26.924;2022-12-18T02:52:07;10.73;;;7.20;;
37855;SDS011;23694;43.274;26.924;2022-12-18T02:57:34;11.10;;;7.10;;
37855;SDS011;23694;43.274;26.924;2022-12-18T03:00:04;12.60;;;7.63;;
37855;SDS011;23694;43.274;26.924;2022-12-18T03:05:31;12.27;;;7.77;;
37855;SDS011;23694;43.274;26.924;2022-12-18T03:08:03;12.03;;;7.90;;
37855;SDS011;23694;43.274;26.924;2022-12-18T03:10:34;14.07;;;8.65;;
37855;SDS011;23694;43.274;26.924;2022-12-18T03:13:11;13.07;;;7.93;;
37855;SDS011;23694;43.274;26.924;2022-12-18T03:15:44;14.90;;;8.47;;
37855;SDS011;23694;43.274;26.924;2022-12-18T03:18:16;12.77;;;8.10;;
37855;SDS011;23694;43.274;26.924;2022-12-18T03:21:21;13.20;;;8.93;;
37855;SDS011;23694;43.274;26.924;2022-12-18T03:23:52;12.00;;;8.30;;
37855;SDS011;23694;43.274;26.924;2022-12-18T03:26:21;14.10;;;8.60;;
37855;SDS011;23694;43.274;26.924;2022-12-18T03:28:51;14.57;;;8.73;;
37855;SDS011;23694;43.274;26.924;2022-12-18T03:31:21;15.53;;;8.93;;
37855;SDS011;23694;43.274;26.924;2022-12-18T03:33:56;15.13;;;9.47;;
37855;SDS011;23694;43.274;26.924;2022-12-18T03:36:26;15.17;;;9.40;;
37855;SDS011;23694;43.274;26.924;2022-12-18T03:38:56;12.93;;;8.43;;
37855;SDS011;23694;43.274;26.924;2022-12-18T03:44:29;16.30;;;9.77;;
37855;SDS011;23694;43.274;26.924;2022-12-18T03:47:17;15.33;;;8.40;;
37855;SDS011;23694;43.274;26.924;2022-12-18T03:50:13;16.13;;;9.87;;
37855;SDS011;23694;43.274;26.924;2022-12-18T03:52:42;17.77;;;10.27;;
37855;SDS011;23694;43.274;26.924;2022-12-18T03:55:43;17.40;;;9.77;;
37855;SDS011;23694;43.274;26.924;2022-12-18T03:58:11;16.47;;;10.00;;
37855;SDS011;23694;43.274;26.924;2022-12-18T04:00:41;19.03;;;11.20;;
37855;SDS011;23694;43.274;26.924;2022-12-18T04:03:09;17.53;;;10.30;;
37855;SDS011;23694;43.274;26.924;2022-12-18T04:05:37;18.83;;;10.93;;
37855;SDS011;23694;43.274;26.924;2022-12-18T04:08:04;18.10;;;10.93;;
37855;SDS011;23694;43.274;26.924;2022-12-18T04:10:30;19.03;;;11.40;;
37855;SDS011;23694;43.274;26.924;2022-12-18T04:12:57;18.30;;;11.07;;
37855;SDS011;23694;43.274;26.924;2022-12-18T04:15:23;18.87;;;11.67;;
37855;SDS011;23694;43.274;26.924;2022-12-18T04:17:49;19.50;;;11.90;;
37855;SDS011;23694;43.274;26.924;2022-12-18T04:20:16;19.37;;;11.17;;
37855;SDS011;23694;43.274;26.924;2022-12-18T04:22:42;19.57;;;10.57;;
37855;SDS011;23694;43.274;26.924;2022-12-18T04:25:08;25.03;;;13.83;;
37855;SDS011;23694;43.274;26.924;2022-12-18T04:27:34;20.77;;;12.40;;
37855;SDS011;23694;43.274;26.924;2022-12-18T04:30:00;29.90;;;16.37;;
37855;SDS011;23694;43.274;26.924;2022-12-18T04:32:27;29.80;;;15.27;;
37855;SDS011;23694;43.274;26.924;2022-12-18T04:34:53;23.90;;;13.30;;
37855;SDS011;23694;43.274;26.924;2022-12-18T04:37:19;21.50;;;13.00;;
37855;SDS011;23694;43.274;26.924;2022-12-18T04:39:45;21.90;;;12.70;;
37855;SDS011;23694;43.274;26.924;2022-12-18T04:42:11;19.17;;;11.83;;
37855;SDS011;23694;43.274;26.924;2022-12-18T04:44:37;20.27;;;12.07;;
37855;SDS011;23694;43.274;26.924;2022-12-18T04:47:03;23.03;;;11.63;;
37855;SDS011;23694;43.274;26.924;2022-12-18T04:49:29;20.60;;;12.77;;
37855;SDS011;23694;43.274;26.924;2022-12-18T04:51:55;20.77;;;12.30;;
37855;SDS011;23694;43.274;26.924;2022-12-18T04:54:21;19.47;;;11.77;;
37855;SDS011;23694;43.274;26.924;2022-12-18T04:56:48;22.83;;;13.20;;
37855;SDS011;23694;43.274;26.924;2022-12-18T04:59:14;20.73;;;12.77;;
37855;SDS011;23694;43.274;26.924;2022-12-18T05:01:40;19.80;;;12.03;;
37855;SDS011;23694;43.274;26.924;2022-12-18T05:04:06;20.97;;;12.23;;
37855;SDS011;23694;43.274;26.924;2022-12-18T05:06:32;21.30;;;12.60;;
37855;SDS011;23694;43.274;26.924;2022-12-18T05:08:58;25.57;;;14.30;;
37855;SDS011;23694;43.274;26.924;2022-12-18T05:11:24;20.90;;;11.47;;
37855;SDS011;23694;43.274;26.924;2022-12-18T05:13:50;21.00;;;12.50;;
37855;SDS011;23694;43.274;26.924;2022-12-18T05:16:16;24.67;;;14.73;;
37855;SDS011;23694;43.274;26.924;2022-12-18T05:18:42;20.60;;;12.90;;
37855;SDS011;23694;43.274;26.924;2022-12-18T05:21:08;21.13;;;12.90;;
37855;SDS011;23694;43.274;26.924;2022-12-18T05:23:35;21.33;;;12.83;;
37855;SDS011;23694;43.274;26.924;2022-12-18T05:26:02;18.47;;;11.73;;
37855;SDS011;23694;43.274;26.924;2022-12-18T05:28:30;23.17;;;13.07;;
37855;SDS011;23694;43.274;26.924;2022-12-18T05:30:59;21.90;;;12.50;;
37855;SDS011;23694;43.274;26.924;2022-12-18T05:33:29;21.50;;;13.63;;
37855;SDS011;23694;43.274;26.924;2022-12-18T05:35:57;20.40;;;11.70;;
37855;SDS011;23694;43.274;26.924;2022-12-18T05:38:25;23.90;;;13.97;;
37855;SDS011;23694;43.274;26.924;2022-12-18T05:40:53;19.90;;;12.20;;
37855;SDS011;23694;43.274;26.924;2022-12-18T05:43:19;21.77;;;12.90;;
37855;SDS011;23694;43.274;26.924;2022-12-18T05:45:49;20.97;;;12.47;;
37855;SDS011;23694;43.274;26.924;2022-12-18T05:48:16;24.17;;;13.57;;
37855;SDS011;23694;43.274;26.924;2022-12-18T05:50:43;21.93;;;13.40;;
37855;SDS011;23694;43.274;26.924;2022-12-18T05:53:12;20.57;;;12.60;;
37855;SDS011;23694;43.274;26.924;2022-12-18T05:55:40;24.23;;;13.67;;
37855;SDS011;23694;43.274;26.924;2022-12-18T05:58:07;23.27;;;14.63;;
37855;SDS011;23694;43.274;26.924;2022-12-18T06:00:36;25.10;;;14.17;;
37855;SDS011;23694;43.274;26.924;2022-12-18T06:03:07;25.33;;;14.18;;
37855;SDS011;23694;43.274;26.924;2022-12-18T06:05:38;28.67;;;15.80;;
37855;SDS011;23694;43.274;26.924;2022-12-18T06:08:06;28.80;;;17.83;;
37855;SDS011;23694;43.274;26.924;2022-12-18T06:10:32;29.17;;;16.83;;
37855;SDS011;23694;43.274;26.924;2022-12-18T06:12:59;27.87;;;15.27;;
37855;SDS011;23694;43.274;26.924;2022-12-18T06:15:25;24.03;;;14.23;;
37855;SDS011;23694;43.274;26.924;2022-12-18T06:17:51;27.60;;;16.17;;
37855;SDS011;23694;43.274;26.924;2022-12-18T06:20:18;30.33;;;16.10;;
37855;SDS011;23694;43.274;26.924;2022-12-18T06:22:44;39.63;;;23.40;;
37855;SDS011;23694;43.274;26.924;2022-12-18T06:25:10;29.73;;;17.80;;
37855;SDS011;23694;43.274;26.924;2022-12-18T06:27:37;29.93;;;17.60;;
37855;SDS011;23694;43.274;26.924;2022-12-18T06:30:03;33.50;;;18.80;;
37855;SDS011;23694;43.274;26.924;2022-12-18T06:32:30;31.83;;;18.13;;
37855;SDS011;23694;43.274;26.924;2022-12-18T06:34:56;35.77;;;20.13;;
37855;SDS011;23694;43.274;26.924;2022-12-18T06:37:22;33.23;;;17.90;;
37855;SDS011;23694;43.274;26.924;2022-12-18T06:39:54;46.10;;;26.10;;
37855;SDS011;23694;43.274;26.924;2022-12-18T06:42:22;35.10;;;20.30;;
37855;SDS011;23694;43.274;26.924;2022-12-18T06:44:48;30.23;;;17.83;;
37855;SDS011;23694;43.274;26.924;2022-12-18T06:47:15;29.43;;;16.27;;
37855;SDS011;23694;43.274;26.924;2022-12-18T06:49:41;28.33;;;16.70;;
37855;SDS011;23694;43.274;26.924;2022-12-18T06:52:07;27.27;;;16.27;;
37855;SDS011;23694;43.274;26.924;2022-12-18T06:54:33;27.93;;;15.80;;
37855;SDS011;23694;43.274;26.924;2022-12-18T06:56:59;29.80;;;17.30;;
37855;SDS011;23694;43.274;26.924;2022-12-18T06:59:25;26.53;;;16.83;;
37855;SDS011;23694;43.274;26.924;2022-12-18T07:01:51;27.70;;;16.60;;
37855;SDS011;23694;43.274;26.924;2022-12-18T07:04:17;34.87;;;19.17;;
37855;SDS011;23694;43.274;26.924;2022-12-18T07:06:43;28.50;;;15.53;;
37855;SDS011;23694;43.274;26.924;2022-12-18T07:09:09;25.17;;;15.03;;
37855;SDS011;23694;43.274;26.924;2022-12-18T07:11:35;36.00;;;16.60;;
37855;SDS011;23694;43.274;26.924;2022-12-18T07:14:01;30.63;;;17.57;;
37855;SDS011;23694;43.274;26.924;2022-12-18T07:16:27;28.37;;;16.90;;
37855;SDS011;23694;43.274;26.924;2022-12-18T07:18:54;26.03;;;16.07;;
37855;SDS011;23694;43.274;26.924;2022-12-18T07:21:21;27.87;;;16.63;;
37855;SDS011;23694;43.274;26.924;2022-12-18T07:23:48;28.73;;;17.70;;
37855;SDS011;23694;43.274;26.924;2022-12-18T07:26:15;27.43;;;16.93;;
37855;SDS011;23694;43.274;26.924;2022-12-18T07:28:42;34.33;;;20.27;;
37855;SDS011;23694;43.274;26.924;2022-12-18T07:31:10;32.57;;;19.90;;
37855;SDS011;23694;43.274;26.924;2022-12-18T07:33:41;32.63;;;19.13;;
37855;SDS011;23694;43.274;26.924;2022-12-18T07:36:08;31.37;;;18.63;;
37855;SDS011;23694;43.274;26.924;2022-12-18T07:38:36;29.90;;;18.50;;
37855;SDS011;23694;43.274;26.924;2022-12-18T07:41:07;34.33;;;20.33;;
37855;SDS011;23694;43.274;26.924;2022-12-18T07:43:37;34.07;;;21.77;;
37855;SDS011;23694;43.274;26.924;2022-12-18T07:46:04;31.60;;;19.13;;
37855;SDS011;23694;43.274;26.924;2022-12-18T07:48:31;32.00;;;17.53;;
37855;SDS011;23694;43.274;26.924;2022-12-18T07:51:00;28.73;;;17.33;;
37855;SDS011;23694;43.274;26.924;2022-12-18T07:53:29;30.23;;;17.67;;
37855;SDS011;23694;43.274;26.924;2022-12-18T07:56:01;30.37;;;18.10;;
37855;SDS011;23694;43.274;26.924;2022-12-18T07:58:32;35.00;;;19.50;;
37855;SDS011;23694;43.274;26.924;2022-12-18T08:01:08;38.77;;;21.07;;
37855;SDS011;23694;43.274;26.924;2022-12-18T08:03:36;36.83;;;20.27;;
37855;SDS011;23694;43.274;26.924;2022-12-18T08:06:04;32.83;;;18.67;;
37855;SDS011;23694;43.274;26.924;2022-12-18T08:08:32;37.67;;;21.30;;
37855;SDS011;23694;43.274;26.924;2022-12-18T08:10:59;35.10;;;21.20;;
37855;SDS011;23694;43.274;26.924;2022-12-18T08:13:26;35.97;;;20.20;;
37855;SDS011;23694;43.274;26.924;2022-12-18T08:15:58;39.93;;;20.40;;
37855;SDS011;23694;43.274;26.924;2022-12-18T08:18:32;41.77;;;21.30;;
37855;SDS011;23694;43.274;26.924;2022-12-18T08:23:40;40.77;;;23.57;;
37855;SDS011;23694;43.274;26.924;2022-12-18T08:26:07;78.70;;;41.97;;
37855;SDS011;23694;43.274;26.924;2022-12-18T08:28:33;48.20;;;27.53;;
37855;SDS011;23694;43.274;26.924;2022-12-18T08:30:59;39.07;;;22.73;;
37855;SDS011;23694;43.274;26.924;2022-12-18T08:33:26;38.77;;;23.90;;
37855;SDS011;23694;43.274;26.924;2022-12-18T08:35:52;36.13;;;21.40;;
37855;SDS011;23694;43.274;26.924;2022-12-18T08:38:18;49.57;;;26.40;;
37855;SDS011;23694;43.274;26.924;2022-12-18T08:40:45;45.30;;;27.63;;
37855;SDS011;23694;43.274;26.924;2022-12-18T08:43:11;41.80;;;25.60;;
37855;SDS011;23694;43.274;26.924;2022-12-18T08:45:56;39.63;;;23.10;;
37855;SDS011;23694;43.274;26.924;2022-12-18T08:48:22;35.57;;;20.27;;
37855;SDS011;23694;43.274;26.924;2022-12-18T08:50:58;36.37;;;20.17;;
37855;SDS011;23694;43.274;26.924;2022-12-18T08:53:25;37.03;;;21.47;;
37855;SDS011;23694;43.274;26.924;2022-12-18T08:55:52;35.17;;;20.27;;
37855;SDS011;23694;43.274;26.924;2022-12-18T08:58:19;45.23;;;26.00;;
37855;SDS011;23694;43.274;26.924;2022-12-18T09:00:45;35.00;;;20.27;;
37855;SDS011;23694;43.274;26.924;2022-12-18T09:03:12;32.13;;;18.40;;
37855;SDS011;23694;43.274;26.924;2022-12-18T09:05:39;33.83;;;19.87;;
37855;SDS011;23694;43.274;26.924;2022-12-18T09:08:05;32.40;;;17.87;;
37855;SDS011;23694;43.274;26.924;2022-12-18T09:10:31;31.97;;;19.20;;
37855;SDS011;23694;43.274;26.924;2022-12-18T09:12:58;35.13;;;20.13;;
37855;SDS011;23694;43.274;26.924;2022-12-18T09:15:25;36.20;;;20.83;;
37855;SDS011;23694;43.274;26.924;2022-12-18T09:17:51;34.47;;;19.10;;
37855;SDS011;23694;43.274;26.924;2022-12-18T09:20:18;37.07;;;20.87;;
37855;SDS011;23694;43.274;26.924;2022-12-18T09:22:44;33.00;;;19.33;;
37855;SDS011;23694;43.274;26.924;2022-12-18T09:25:10;37.97;;;21.47;;
37855;SDS011;23694;43.274;26.924;2022-12-18T09:27:37;38.20;;;22.77;;
37855;SDS011;23694;43.274;26.924;2022-12-18T09:30:03;40.53;;;23.20;;
37855;SDS011;23694;43.274;26.924;2022-12-18T09:32:29;38.43;;;22.27;;
37855;SDS011;23694;43.274;26.924;2022-12-18T09:34:55;37.40;;;20.63;;
37855;SDS011;23694;43.274;26.924;2022-12-18T09:37:21;37.73;;;20.93;;
37855;SDS011;23694;43.274;26.924;2022-12-18T09:39:47;33.77;;;20.67;;
37855;SDS011;23694;43.274;26.924;2022-12-18T09:42:20;38.80;;;22.10;;
37855;SDS011;23694;43.274;26.924;2022-12-18T09:44:52;36.60;;;21.63;;
37855;SDS011;23694;43.274;26.924;2022-12-18T09:49:58;42.83;;;23.60;;
37855;SDS011;23694;43.274;26.924;2022-12-18T09:53:04;48.33;;;26.67;;
37855;SDS011;23694;43.274;26.924;2022-12-18T09:55:24;49.53;;;26.47;;
37855;SDS011;23694;43.274;26.924;2022-12-18T10:00:51;41.23;;;24.60;;
37855;SDS011;23694;43.274;26.924;2022-12-18T10:03:18;35.13;;;20.77;;
37855;SDS011;23694;43.274;26.924;2022-12-18T10:08:24;39.63;;;22.30;;
37855;SDS011;23694;43.274;26.924;2022-12-18T10:11:27;32.23;;;18.90;;
37855;SDS011;23694;43.274;26.924;2022-12-18T10:14:03;39.63;;;21.77;;
37855;SDS011;23694;43.274;26.924;2022-12-18T10:17:26;42.20;;;25.17;;
37855;SDS011;23694;43.274;26.924;2022-12-18T10:19:53;47.00;;;27.60;;
37855;SDS011;23694;43.274;26.924;2022-12-18T10:27:46;34.67;;;20.53;;
37855;SDS011;23694;43.274;26.924;2022-12-18T10:30:14;33.70;;;20.83;;
37855;SDS011;23694;43.274;26.924;2022-12-18T10:32:46;37.00;;;21.57;;
37855;SDS011;23694;43.274;26.924;2022-12-18T10:35:23;40.27;;;24.60;;
37855;SDS011;23694;43.274;26.924;2022-12-18T10:40:52;40.67;;;25.80;;
37855;SDS011;23694;43.274;26.924;2022-12-18T10:43:27;55.63;;;30.70;;
37855;SDS011;23694;43.274;26.924;2022-12-18T10:51:29;40.30;;;24.10;;
37855;SDS011;23694;43.274;26.924;2022-12-18T10:54:15;42.70;;;24.63;;
37855;SDS011;23694;43.274;26.924;2022-12-18T10:56:47;44.20;;;24.10;;
37855;SDS011;23694;43.274;26.924;2022-12-18T10:59:15;40.77;;;25.00;;
37855;SDS011;23694;43.274;26.924;2022-12-18T11:01:52;39.97;;;21.97;;
37855;SDS011;23694;43.274;26.924;2022-12-18T11:06:53;38.33;;;22.07;;
37855;SDS011;23694;43.274;26.924;2022-12-18T11:09:21;34.90;;;21.47;;
37855;SDS011;23694;43.274;26.924;2022-12-18T11:11:55;43.00;;;25.53;;
37855;SDS011;23694;43.274;26.924;2022-12-18T11:16:54;38.20;;;22.13;;
37855;SDS011;23694;43.274;26.924;2022-12-18T11:22:19;37.90;;;22.23;;
37855;SDS011;23694;43.274;26.924;2022-12-18T11:24:57;45.88;;;25.95;;
37855;SDS011;23694;43.274;26.924;2022-12-18T11:27:26;43.10;;;25.30;;
37855;SDS011;23694;43.274;26.924;2022-12-18T11:37:54;46.90;;;26.37;;
37855;SDS011;23694;43.274;26.924;2022-12-18T11:40:33;48.03;;;27.90;;
37855;SDS011;23694;43.274;26.924;2022-12-18T11:43:10;53.63;;;26.20;;
37855;SDS011;23694;43.274;26.924;2022-12-18T11:45:47;46.27;;;26.80;;
37855;SDS011;23694;43.274;26.924;2022-12-18T11:48:21;44.73;;;25.33;;
37855;SDS011;23694;43.274;26.924;2022-12-18T11:50:51;47.20;;;26.63;;
37855;SDS011;23694;43.274;26.924;2022-12-18T11:53:19;48.30;;;29.00;;
37855;SDS011;23694;43.274;26.924;2022-12-18T11:59:02;43.67;;;25.67;;
37855;SDS011;23694;43.274;26.924;2022-12-18T12:02:03;49.83;;;29.47;;
37855;SDS011;23694;43.274;26.924;2022-12-18T12:09:43;53.57;;;27.93;;
37855;SDS011;23694;43.274;26.924;2022-12-18T12:14:52;49.77;;;26.60;;
37855;SDS011;23694;43.274;26.924;2022-12-18T12:17:43;41.93;;;23.93;;
37855;SDS011;23694;43.274;26.924;2022-12-18T12:28:54;52.00;;;28.30;;
37855;SDS011;23694;43.274;26.924;2022-12-18T12:34:20;48.05;;;27.88;;
37855;SDS011;23694;43.274;26.924;2022-12-18T12:39:32;50.17;;;27.73;;
37855;SDS011;23694;43.274;26.924;2022-12-18T12:42:05;45.50;;;26.27;;
37855;SDS011;23694;43.274;26.924;2022-12-18T12:44:59;41.23;;;25.60;;
37855;SDS011;23694;43.274;26.924;2022-12-18T12:47:31;48.97;;;27.57;;
37855;SDS011;23694;43.274;26.924;2022-12-18T12:50:02;48.00;;;27.70;;
37855;SDS011;23694;43.274;26.924;2022-12-18T12:52:41;47.27;;;28.13;;
37855;SDS011;23694;43.274;26.924;2022-12-18T12:55:31;47.20;;;26.05;;
37855;SDS011;23694;43.274;26.924;2022-12-18T12:58:15;44.23;;;25.50;;
37855;SDS011;23694;43.274;26.924;2022-12-18T13:09:10;51.07;;;28.80;;
37855;SDS011;23694;43.274;26.924;2022-12-18T13:11:43;52.50;;;28.33;;
37855;SDS011;23694;43.274;26.924;2022-12-18T13:17:44;52.43;;;30.57;;
37855;SDS011;23694;43.274;26.924;2022-12-18T13:19:51;51.20;;;30.27;;
37855;SDS011;23694;43.274;26.924;2022-12-18T13:22:29;48.50;;;29.20;;
37855;SDS011;23694;43.274;26.924;2022-12-18T13:25:27;50.97;;;29.73;;
37855;SDS011;23694;43.274;26.924;2022-12-18T13:28:11;48.00;;;29.23;;
37855;SDS011;23694;43.274;26.924;2022-12-18T13:30:45;53.85;;;29.63;;
37855;SDS011;23694;43.274;26.924;2022-12-18T13:43:52;54.10;;;30.17;;
37855;SDS011;23694;43.274;26.924;2022-12-18T13:48:50;54.33;;;30.23;;
37855;SDS011;23694;43.274;26.924;2022-12-18T13:51:19;58.50;;;33.10;;
37855;SDS011;23694;43.274;26.924;2022-12-18T13:53:48;55.57;;;32.37;;
37855;SDS011;23694;43.274;26.924;2022-12-18T13:56:18;62.13;;;34.83;;
37855;SDS011;23694;43.274;26.924;2022-12-18T13:59:11;63.80;;;34.40;;
37855;SDS011;23694;43.274;26.924;2022-12-18T14:01:34;60.60;;;33.17;;
37855;SDS011;23694;43.274;26.924;2022-12-18T14:07:01;60.77;;;34.73;;
37855;SDS011;23694;43.274;26.924;2022-12-18T14:09:34;57.33;;;33.30;;
37855;SDS011;23694;43.274;26.924;2022-12-18T14:12:02;60.85;;;34.75;;
37855;SDS011;23694;43.274;26.924;2022-12-18T14:14:48;55.63;;;32.03;;
37855;SDS011;23694;43.274;26.924;2022-12-18T14:17:16;61.90;;;35.80;;
37855;SDS011;23694;43.274;26.924;2022-12-18T14:19:44;64.53;;;37.60;;
37855;SDS011;23694;43.274;26.924;2022-12-18T14:22:16;69.43;;;39.97;;
37855;SDS011;23694;43.274;26.924;2022-12-18T14:24:45;69.40;;;38.80;;
37855;SDS011;23694;43.274;26.924;2022-12-18T14:27:17;59.10;;;34.13;;
37855;SDS011;23694;43.274;26.924;2022-12-18T14:29:47;56.90;;;34.23;;
37855;SDS011;23694;43.274;26.924;2022-12-18T14:32:14;63.70;;;36.67;;
37855;SDS011;23694;43.274;26.924;2022-12-18T14:34:44;56.10;;;33.17;;
37855;SDS011;23694;43.274;26.924;2022-12-18T14:37:16;55.40;;;32.90;;
37855;SDS011;23694;43.274;26.924;2022-12-18T14:40:19;61.03;;;33.83;;
37855;SDS011;23694;43.274;26.924;2022-12-18T14:42:38;57.20;;;32.60;;
37855;SDS011;23694;43.274;26.924;2022-12-18T14:48:07;58.92;;;32.20;;
37855;SDS011;23694;43.274;26.924;2022-12-18T14:50:42;54.37;;;31.43;;
37855;SDS011;23694;43.274;26.924;2022-12-18T14:53:27;58.60;;;31.43;;
37855;SDS011;23694;43.274;26.924;2022-12-18T14:55:57;50.90;;;28.97;;
37855;SDS011;23694;43.274;26.924;2022-12-18T14:58:23;57.20;;;31.17;;
37855;SDS011;23694;43.274;26.924;2022-12-18T15:00:50;53.20;;;31.07;;
37855;SDS011;23694;43.274;26.924;2022-12-18T15:03:20;56.73;;;30.33;;
37855;SDS011;23694;43.274;26.924;2022-12-18T15:05:47;59.13;;;35.17;;
37855;SDS011;23694;43.274;26.924;2022-12-18T15:08:30;59.67;;;34.23;;
37855;SDS011;23694;43.274;26.924;2022-12-18T15:11:01;66.17;;;36.87;;
37855;SDS011;23694;43.274;26.924;2022-12-18T15:13:28;59.90;;;33.70;;
37855;SDS011;23694;43.274;26.924;2022-12-18T15:15:54;55.33;;;31.97;;
37855;SDS011;23694;43.274;26.924;2022-12-18T15:18:35;53.35;;;32.47;;
37855;SDS011;23694;43.274;26.924;2022-12-18T15:21:08;57.22;;;32.30;;
37855;SDS011;23694;43.274;26.924;2022-12-18T15:23:46;53.90;;;30.73;;
37855;SDS011;23694;43.274;26.924;2022-12-18T15:26:15;54.43;;;31.77;;
37855;SDS011;23694;43.274;26.924;2022-12-18T15:28:44;52.20;;;30.37;;
37855;SDS011;23694;43.274;26.924;2022-12-18T15:31:22;59.20;;;32.17;;
37855;SDS011;23694;43.274;26.924;2022-12-18T15:36:24;59.77;;;33.00;;
37855;SDS011;23694;43.274;26.924;2022-12-18T15:38:53;63.40;;;34.90;;
37855;SDS011;23694;43.274;26.924;2022-12-18T15:41:20;63.93;;;36.67;;
37855;SDS011;23694;43.274;26.924;2022-12-18T15:43:48;63.00;;;34.73;;
37855;SDS011;23694;43.274;26.924;2022-12-18T15:46:16;65.97;;;36.10;;
37855;SDS011;23694;43.274;26.924;2022-12-18T15:48:44;67.60;;;37.53;;
37855;SDS011;23694;43.274;26.924;2022-12-18T15:53:47;75.50;;;38.97;;
37855;SDS011;23694;43.274;26.924;2022-12-18T15:56:16;69.67;;;37.70;;
37855;SDS011;23694;43.274;26.924;2022-12-18T15:59:00;70.67;;;38.40;;
37855;SDS011;23694;43.274;26.924;2022-12-18T16:01:28;62.90;;;33.83;;
37855;SDS011;23694;43.274;26.924;2022-12-18T16:03:56;69.73;;;36.27;;
37855;SDS011;23694;43.274;26.924;2022-12-18T16:06:22;67.53;;;35.47;;
37855;SDS011;23694;43.274;26.924;2022-12-18T16:08:48;72.07;;;38.30;;
37855;SDS011;23694;43.274;26.924;2022-12-18T16:11:25;71.53;;;39.80;;
37855;SDS011;23694;43.274;26.924;2022-12-18T16:14:10;73.50;;;39.20;;
37855;SDS011;23694;43.274;26.924;2022-12-18T16:16:48;74.53;;;39.80;;
37855;SDS011;23694;43.274;26.924;2022-12-18T16:19:15;67.20;;;36.85;;
37855;SDS011;23694;43.274;26.924;2022-12-18T16:21:42;67.37;;;38.60;;
37855;SDS011;23694;43.274;26.924;2022-12-18T16:24:13;71.43;;;40.47;;
37855;SDS011;23694;43.274;26.924;2022-12-18T16:26:53;75.37;;;41.47;;
37855;SDS011;23694;43.274;26.924;2022-12-18T16:29:20;73.73;;;40.67;;
37855;SDS011;23694;43.274;26.924;2022-12-18T16:31:50;75.73;;;41.53;;
37855;SDS011;23694;43.274;26.924;2022-12-18T16:36:48;82.90;;;43.83;;
37855;SDS011;23694;43.274;26.924;2022-12-18T16:39:19;82.77;;;42.70;;
37855;SDS011;23694;43.274;26.924;2022-12-18T16:41:45;71.20;;;39.83;;